Time;durP1;ratioP1;P1;durP2;ratioP2;P2;SDS_P1;SDS_P2;PMS_P1;PMS_P2;Temp;Humidity;BMP_temperature;BMP_pressure;BME280_temperature;BME280_humidity;BME280_pressure;Samples;Min_cycle;Max_cycle;Signal;HPM_P1;HPM_P2
2023/10/17 00:02:11;;;;;;;5.60;0.32;;;7.30;99.90;;;;;;5000662;28;20053;-63
2023/10/17 00:04:41;;;;;;;0.60;0.40;;;7.30;99.90;;;;;;5002583;28;20128;-64
2023/10/17 00:07:10;;;;;;;0.30;0.30;;;7.30;99.90;;;;;;5000286;28;20704;-63
2023/10/17 00:09:38;;;;;;;2.35;0.40;;;7.30;99.90;;;;;;4998573;28;20129;-62
2023/10/17 00:12:25;;;;;;;2.47;0.30;;;7.20;99.90;;;;;;4999040;28;20424;-63
2023/10/17 00:17:20;;;;;;;0.70;0.28;;;7.30;99.90;;;;;;4999992;28;20086;-64
2023/10/17 00:19:49;;;;;;;0.70;0.40;;;7.30;99.90;;;;;;5004646;28;20038;-64
2023/10/17 00:22:23;;;;;;;1.90;0.40;;;7.30;99.90;;;;;;5004275;28;20077;-64
2023/10/17 00:25:09;;;;;;;0.70;0.30;;;7.30;99.90;;;;;;5006113;28;20134;-64
2023/10/17 00:27:37;;;;;;;0.22;0.22;;;7.20;99.90;;;;;;4998360;28;20558;-62
2023/10/17 00:30:06;;;;;;;2.67;0.55;;;7.20;99.90;;;;;;5001295;28;20407;-63
2023/10/17 00:32:40;;;;;;;0.32;0.30;;;7.20;99.90;;;;;;5003104;28;20081;-62
2023/10/17 00:35:19;;;;;;;0.40;0.40;;;7.20;99.90;;;;;;4986778;28;20049;-66
2023/10/17 00:38:07;;;;;;;1.38;0.30;;;7.20;99.90;;;;;;5002186;28;20412;-64
2023/10/17 00:40:51;;;;;;;1.75;0.35;;;7.20;99.90;;;;;;4999765;28;20136;-63
2023/10/17 00:43:19;;;;;;;2.08;0.30;;;7.20;99.90;;;;;;4995331;28;20060;-64
2023/10/17 00:45:47;;;;;;;0.50;0.20;;;7.20;99.90;;;;;;5003663;28;20038;-64
2023/10/17 00:48:22;;;;;;;1.70;0.73;;;7.10;99.90;;;;;;4994730;28;20050;-63
2023/10/17 00:50:56;;;;;;;0.28;0.20;;;7.20;99.90;;;;;;4999203;28;20046;-65
2023/10/17 00:53:24;;;;;;;0.98;0.82;;;7.20;99.90;;;;;;4999360;28;20523;-63
2023/10/17 00:55:52;;;;;;;1.80;0.30;;;7.20;99.90;;;;;;4996798;28;20109;-63
2023/10/17 00:58:21;;;;;;;1.88;1.35;;;7.20;99.90;;;;;;5000798;28;20050;-65
2023/10/17 01:00:54;;;;;;;1.08;0.35;;;7.20;99.90;;;;;;5000294;28;20053;-64
2023/10/17 01:03:24;;;;;;;1.77;0.70;;;7.20;99.90;;;;;;4989123;28;20115;-65
2023/10/17 01:05:57;;;;;;;1.17;0.35;;;7.20;99.90;;;;;;4999225;28;20411;-65
2023/10/17 01:08:37;;;;;;;2.00;0.43;;;7.20;99.90;;;;;;5001864;28;20037;-66
2023/10/17 01:11:16;;;;;;;0.20;0.20;;;7.20;99.90;;;;;;4997920;28;20118;-62
2023/10/17 01:13:43;;;;;;;1.38;0.57;;;7.20;99.90;;;;;;5006045;28;20444;-63
2023/10/17 01:16:15;;;;;;;0.77;0.22;;;7.20;99.90;;;;;;5003096;28;20607;-63
2023/10/17 01:18:45;;;;;;;0.75;0.40;;;7.20;99.90;;;;;;4992707;28;20053;-64
2023/10/17 01:21:18;;;;;;;2.42;0.43;;;7.20;99.90;;;;;;5002342;28;20057;-63
2023/10/17 01:23:46;;;;;;;1.48;0.75;;;7.20;99.90;;;;;;5002262;28;20056;-63
2023/10/17 01:26:23;;;;;;;0.50;0.47;;;7.20;99.90;;;;;;5005347;28;20053;-64
2023/10/17 01:28:53;;;;;;;0.52;0.30;;;7.20;99.90;;;;;;4990650;28;20047;-66
2023/10/17 01:31:23;;;;;;;0.52;0.40;;;7.20;99.90;;;;;;4997706;28;20133;-64
2023/10/17 01:33:55;;;;;;;0.43;0.30;;;7.20;99.90;;;;;;4999376;28;20048;-64
2023/10/17 01:36:23;;;;;;;0.82;0.40;;;7.20;99.90;;;;;;5002735;28;20038;-67
2023/10/17 01:38:50;;;;;;;0.88;0.20;;;7.20;99.90;;;;;;4999978;28;20045;-64
2023/10/17 01:41:19;;;;;;;0.45;0.20;;;7.20;99.90;;;;;;5007570;28;20383;-65
2023/10/17 01:43:48;;;;;;;0.55;0.25;;;7.20;99.90;;;;;;5000331;28;20070;-66
2023/10/17 01:46:22;;;;;;;1.42;0.40;;;7.20;99.90;;;;;;4998233;28;20482;-67
2023/10/17 01:48:53;;;;;;;2.50;0.30;;;7.30;99.90;;;;;;4990277;28;20054;-65
2023/10/17 01:51:24;;;;;;;0.45;0.40;;;7.20;99.90;;;;;;4999878;28;20523;-63
2023/10/17 01:53:51;;;;;;;2.92;0.40;;;7.20;99.90;;;;;;5000498;28;20120;-65
2023/10/17 01:56:26;;;;;;;1.65;0.93;;;7.20;99.90;;;;;;5005473;28;20042;-65
2023/10/17 01:59:09;;;;;;;0.75;0.70;;;7.20;99.90;;;;;;4986702;28;20041;-68
2023/10/17 02:01:36;;;;;;;1.90;0.50;;;7.20;99.90;;;;;;4993481;28;20503;-65
2023/10/17 02:04:14;;;;;;;0.93;0.43;;;7.20;99.90;;;;;;5007232;28;20104;-67
2023/10/17 02:06:42;;;;;;;2.67;0.50;;;7.20;99.90;;;;;;5002299;28;20046;-64
2023/10/17 02:09:24;;;;;;;3.25;0.40;;;7.20;99.90;;;;;;5001364;28;20062;-65
2023/10/17 02:11:54;;;;;;;1.67;0.70;;;7.20;99.90;;;;;;4994972;28;20552;-66
2023/10/17 02:14:25;;;;;;;0.47;0.47;;;7.20;99.90;;;;;;4990470;28;20165;-68
2023/10/17 02:16:55;;;;;;;0.60;0.30;;;7.20;99.90;;;;;;4996176;28;20042;-63
2023/10/17 02:19:25;;;;;;;0.63;0.30;;;7.30;99.90;;;;;;4991579;28;20053;-67
2023/10/17 02:21:54;;;;;;;2.13;1.38;;;7.30;99.90;;;;;;4996303;28;20119;-63
2023/10/17 02:24:21;;;;;;;1.55;0.47;;;7.30;99.90;;;;;;5000539;28;20061;-68
2023/10/17 02:26:59;;;;;;;0.95;0.40;;;7.30;99.90;;;;;;5001908;28;20056;-62
2023/10/17 02:29:31;;;;;;;2.40;0.50;;;7.30;99.90;;;;;;4981248;28;20695;-65
2023/10/17 02:31:58;;;;;;;0.35;0.32;;;7.40;99.90;;;;;;4997126;28;20050;-67
2023/10/17 02:34:31;;;;;;;3.47;0.20;;;7.40;99.90;;;;;;4999895;28;20137;-65
2023/10/17 02:37:00;;;;;;;3.63;0.60;;;7.40;99.90;;;;;;5002015;28;20050;-64
2023/10/17 02:39:27;;;;;;;1.73;0.40;;;7.40;99.90;;;;;;4999965;28;20084;-66
2023/10/17 02:42:06;;;;;;;1.13;0.60;;;7.40;99.90;;;;;;5000997;28;20042;-67
2023/10/17 02:44:39;;;;;;;4.10;0.60;;;7.50;99.90;;;;;;5002806;28;20049;-65
2023/10/17 02:47:15;;;;;;;1.08;0.30;;;7.50;99.90;;;;;;5005914;28;20042;-62
2023/10/17 02:49:46;;;;;;;1.38;0.90;;;7.50;99.90;;;;;;5007745;28;20038;-67
2023/10/17 02:52:17;;;;;;;1.38;1.27;;;7.50;99.90;;;;;;5005678;28;20053;-63
2023/10/17 02:54:57;;;;;;;0.60;0.30;;;7.50;99.90;;;;;;5001263;28;20053;-63
2023/10/17 02:57:24;;;;;;;1.13;0.30;;;7.50;99.90;;;;;;5008564;28;20104;-64
2023/10/17 02:59:57;;;;;;;3.33;0.88;;;7.50;99.90;;;;;;5005636;28;20279;-68
2023/10/17 03:02:36;;;;;;;2.85;0.60;;;7.50;99.90;;;;;;4987910;28;20080;-63
2023/10/17 03:05:11;;;;;;;3.00;0.60;;;7.50;99.90;;;;;;4999821;28;20053;-68
2023/10/17 03:07:42;;;;;;;1.70;0.40;;;7.50;99.90;;;;;;4997555;28;20050;-64
2023/10/17 03:10:11;;;;;;;;;;;7.40;99.90;;;;;;5004662;28;20046;-63
2023/10/17 03:12:54;;;;;;;2.35;0.50;;;7.40;99.90;;;;;;5004327;28;19922;-65
2023/10/17 03:15:23;;;;;;;4.80;0.70;;;7.50;99.90;;;;;;5000688;28;20510;-68
2023/10/17 03:17:54;;;;;;;1.33;0.47;;;7.40;99.90;;;;;;5001110;28;20105;-62
2023/10/17 03:20:35;;;;;;;2.22;0.52;;;7.40;99.90;;;;;;5001176;28;20057;-67
2023/10/17 03:23:08;;;;;;;4.10;0.40;;;7.40;99.90;;;;;;5001227;28;20121;-64
2023/10/17 03:25:39;;;;;;;3.30;0.88;;;7.40;99.90;;;;;;4993815;28;20051;-63
2023/10/17 03:28:13;;;;;;;2.00;0.88;;;7.40;99.90;;;;;;4987709;28;20054;-62
2023/10/17 03:30:41;;;;;;;1.15;0.40;;;7.40;99.90;;;;;;4986162;28;20427;-65
2023/10/17 03:33:32;;;;;;;3.73;0.33;;;7.30;99.90;;;;;;4976912;28;20058;-62
2023/10/17 03:38:30;;;;;;;0.47;0.30;;;7.30;99.90;;;;;;4986652;28;20500;-64
2023/10/17 03:41:17;;;;;;;2.30;0.70;;;7.30;99.90;;;;;;5005184;28;20068;-65
2023/10/17 03:43:53;;;;;;;2.83;0.82;;;7.40;99.90;;;;;;5005677;28;20125;-63
2023/10/17 03:46:25;;;;;;;1.25;0.38;;;7.40;99.90;;;;;;5005638;28;20060;-64
2023/10/17 03:49:00;;;;;;;2.50;1.48;;;7.40;99.90;;;;;;5002454;28;20046;-63
2023/10/17 03:51:27;;;;;;;0.98;0.40;;;7.30;99.90;;;;;;5001894;28;20724;-62
2023/10/17 03:54:06;;;;;;;2.00;0.45;;;7.30;99.90;;;;;;5003289;28;20475;-62
2023/10/17 03:56:45;;;;;;;0.80;0.60;;;7.30;99.90;;;;;;5002691;28;20045;-65
2023/10/17 04:01:41;;;;;;;5.03;1.40;;;7.40;99.90;;;;;;5003023;28;20046;-68
2023/10/17 04:04:08;;;;;;;4.15;1.00;;;7.40;99.90;;;;;;5004471;28;20048;-64
2023/10/17 04:06:51;;;;;;;8.32;1.10;;;7.40;99.90;;;;;;5004186;28;20096;-64
2023/10/17 04:09:27;;;;;;;1.05;0.50;;;7.40;99.90;;;;;;5007200;28;20046;-63
2023/10/17 04:12:06;;;;;;;3.38;0.95;;;7.40;99.90;;;;;;5001336;28;20047;-63
2023/10/17 04:14:34;;;;;;;1.08;1.02;;;7.40;99.90;;;;;;4998668;28;20034;-63
2023/10/17 04:17:05;;;;;;;1.42;0.35;;;7.50;99.90;;;;;;5005575;28;20088;-63
2023/10/17 04:19:32;;;;;;;1.23;0.70;;;7.50;99.90;;;;;;4999205;28;20038;-62
2023/10/17 04:24:48;;;;;;;0.77;0.38;;;7.50;99.90;;;;;;4994465;28;20067;-65
2023/10/17 04:27:23;;;;;;;2.85;0.73;;;7.50;99.90;;;;;;4994620;28;20467;-62
2023/10/17 04:29:50;;;;;;;1.08;0.63;;;7.50;99.90;;;;;;5000196;28;20045;-66
2023/10/17 04:32:19;;;;;;;2.78;0.95;;;7.50;99.90;;;;;;5001873;28;20046;-64
2023/10/17 04:34:47;;;;;;;2.63;0.90;;;7.40;99.90;;;;;;4998936;28;20520;-63
2023/10/17 04:37:24;;;;;;;1.75;0.40;;;7.40;99.90;;;;;;4997552;28;20054;-65
2023/10/17 04:40:20;;;;;;;3.22;0.90;;;7.40;99.90;;;;;;4996461;28;20050;-62
2023/10/17 04:43:10;;;;;;;1.67;0.55;;;7.40;99.90;;;;;;5006028;28;20389;-67
2023/10/17 04:45:34;;;;;;;;;;;7.40;99.90;;;;;;5003075;28;20523;-64
2023/10/17 04:48:11;;;;;;;2.65;0.35;;;7.40;99.90;;;;;;5005858;28;20334;-66
2023/10/17 04:51:13;;;;;;;1.60;0.55;;;7.40;99.90;;;;;;5002066;28;20241;-63
2023/10/17 04:53:35;;;;;;;3.28;0.50;;;7.40;99.90;;;;;;4996879;28;20077;-65
2023/10/17 04:56:11;;;;;;;5.68;0.93;;;7.40;99.90;;;;;;4998647;28;20054;-63
2023/10/17 05:01:35;;;;;;;3.90;0.50;;;7.40;99.90;;;;;;5000817;28;20376;-63
2023/10/17 05:04:20;;;;;;;2.60;0.60;;;7.40;99.90;;;;;;5002015;28;20096;-68
2023/10/17 06:18:26;;;;;;;2.33;0.65;;;7.50;99.90;;;;;;5001649;28;20054;-63
2023/10/17 06:34:18;;;;;;;4.25;0.90;;;7.80;99.90;;;;;;4998839;28;20061;-66
2023/10/17 06:36:49;;;;;;;2.65;0.93;;;7.80;99.90;;;;;;5001145;28;20074;-62
2023/10/17 06:39:23;;;;;;;1.42;0.75;;;7.90;99.90;;;;;;4995421;28;20045;-63
2023/10/17 06:42:10;;;;;;;1.98;0.80;;;7.90;99.90;;;;;;4992174;28;20042;-63
2023/10/17 06:44:51;;;;;;;5.35;0.65;;;8.00;99.90;;;;;;5001220;28;20394;-62
2023/10/17 06:47:22;;;;;;;6.93;1.33;;;8.00;99.90;;;;;;4998588;28;20680;-64
2023/10/17 06:50:17;;;;;;;1.40;0.77;;;8.00;99.90;;;;;;4999669;28;20049;-63
2023/10/17 06:55:29;;;;;;;1.88;0.73;;;8.10;99.90;;;;;;4995319;28;20066;-66
2023/10/17 06:58:08;;;;;;;6.13;1.00;;;8.20;99.90;;;;;;5002465;28;20408;-62
2023/10/17 07:03:24;;;;;;;6.32;0.73;;;8.20;99.90;;;;;;5002873;28;20050;-64
2023/10/17 07:05:55;;;;;;;5.03;1.80;;;8.20;99.90;;;;;;4998224;28;20058;-64
2023/10/17 07:08:22;;;;;;;3.28;0.98;;;8.20;99.90;;;;;;4998552;28;20050;-66
2023/10/17 07:14:22;;;;;;;2.25;0.90;;;8.20;99.90;;;;;;4976385;28;20055;-62
2023/10/17 07:16:48;;;;;;;5.20;1.33;;;8.30;99.90;;;;;;5000132;28;20050;-64
2023/10/17 07:22:06;;;;;;;7.43;1.17;;;8.30;99.90;;;;;;4990491;28;20055;-62
2023/10/17 07:24:37;;;;;;;4.70;1.33;;;8.40;99.90;;;;;;4999083;28;20061;-64
2023/10/17 07:27:11;;;;;;;1.95;1.27;;;8.40;99.90;;;;;;5005194;28;20042;-64
2023/10/17 07:29:45;;;;;;;1.88;0.68;;;8.50;99.90;;;;;;5000891;28;20072;-64
2023/10/17 07:32:16;;;;;;;4.50;0.88;;;8.50;99.90;;;;;;5002512;28;20056;-64
2023/10/17 07:34:44;;;;;;;2.47;0.90;;;8.60;99.90;;;;;;5001616;28;20064;-64
2023/10/17 07:37:22;;;;;;;1.65;0.77;;;8.60;99.90;;;;;;5002360;28;20120;-62
2023/10/17 07:42:40;;;;;;;4.78;1.35;;;8.70;99.90;;;;;;5003178;28;20505;-64
2023/10/17 07:45:17;;;;;;;0.98;0.68;;;8.70;99.90;;;;;;4999463;28;20477;-62
2023/10/17 07:47:51;;;;;;;2.85;1.13;;;8.70;99.90;;;;;;5000962;28;20047;-63
2023/10/17 07:50:20;;;;;;;7.90;2.15;;;8.80;99.90;;;;;;5001295;28;20042;-69
2023/10/17 07:52:50;;;;;;;5.05;1.70;;;8.80;99.90;;;;;;5004257;28;20290;-66
2023/10/17 07:55:35;;;;;;;6.43;1.25;;;8.90;99.90;;;;;;5000310;28;20058;-67
2023/10/17 07:58:09;;;;;;;2.15;0.90;;;9.00;99.90;;;;;;5003044;28;20046;-63
2023/10/17 08:00:37;;;;;;;3.17;1.50;;;9.00;99.90;;;;;;5002771;28;20491;-64
2023/10/17 08:03:15;;;;;;;2.13;1.13;;;9.00;99.90;;;;;;5001041;28;20038;-64
2023/10/17 08:05:54;;;;;;;3.40;0.90;;;9.10;99.90;;;;;;5004348;28;20125;-69
2023/10/17 08:08:23;;;;;;;6.15;0.82;;;9.10;99.90;;;;;;5004866;28;20042;-65
2023/10/17 08:10:51;;;;;;;4.75;1.33;;;9.10;99.90;;;;;;5004614;28;20038;-63
2023/10/17 08:13:20;;;;;;;5.65;0.70;;;9.10;99.90;;;;;;5003430;28;20507;-66
2023/10/17 08:15:53;;;;;;;1.10;0.73;;;9.00;99.90;;;;;;4996932;28;20472;-62
2023/10/17 08:18:28;;;;;;;9.88;2.28;;;9.00;99.90;;;;;;5006062;28;20049;-65
2023/10/17 08:21:33;;;;;;;2.35;0.80;;;9.10;99.90;;;;;;5002395;28;20471;-63
2023/10/17 08:23:54;;;;;;;3.72;0.77;;;9.20;99.90;;;;;;5004906;28;20116;-63
2023/10/17 08:26:28;;;;;;;2.50;0.73;;;9.20;99.90;;;;;;5003676;28;20053;-67
2023/10/17 08:29:00;;;;;;;2.30;1.15;;;9.20;99.90;;;;;;5000923;28;20857;-63
2023/10/17 08:31:27;;;;;;;1.80;1.15;;;9.20;99.90;;;;;;4999087;28;20030;-65
2023/10/17 08:36:42;;;;;;;4.32;0.63;;;9.20;99.90;;;;;;4999699;28;20046;-63
2023/10/17 08:42:14;;;;;;;1.20;0.57;;;9.20;99.90;;;;;;4997752;28;20126;-62
2023/10/17 08:44:46;;;;;;;3.08;1.05;;;9.10;99.90;;;;;;4997618;28;20050;-68
2023/10/17 08:47:36;;;;;;;4.18;1.00;;;9.20;99.90;;;;;;5000349;28;20037;-65
2023/10/17 08:50:04;;;;;;;4.93;0.82;;;9.20;99.90;;;;;;4999532;28;20052;-62
2023/10/17 08:52:35;;;;;;;3.17;1.40;;;9.20;99.90;;;;;;5000385;28;20077;-64
2023/10/17 08:55:02;;;;;;;3.97;2.05;;;9.30;99.90;;;;;;4998176;28;20124;-62
2023/10/17 08:57:31;;;;;;;7.93;2.25;;;9.40;99.90;;;;;;5000378;28;20446;-63
2023/10/17 09:02:43;;;;;;;3.92;1.00;;;9.40;99.90;;;;;;5002174;28;20443;-62
2023/10/17 09:05:26;;;;;;;3.05;1.00;;;9.50;99.90;;;;;;5004885;28;20522;-65
2023/10/17 09:07:56;;;;;;;4.40;1.10;;;9.50;99.90;;;;;;4998393;28;20077;-68
2023/10/17 09:10:38;;;;;;;9.15;1.42;;;9.40;99.90;;;;;;4999439;28;20129;-70
2023/10/17 09:15:59;;;;;;;8.38;0.85;;;9.50;99.90;;;;;;5000253;28;20470;-63
2023/10/17 09:18:28;;;;;;;2.22;0.75;;;9.50;99.90;;;;;;5004088;28;20470;-66
2023/10/17 09:20:57;;;;;;;6.70;1.15;;;9.50;99.90;;;;;;5008984;28;20045;-64
2023/10/17 09:23:27;;;;;;;6.43;0.88;;;9.60;99.90;;;;;;4999217;28;20057;-66
2023/10/17 09:25:55;;;;;;;2.53;1.50;;;9.60;99.90;;;;;;4999013;28;20051;-62
2023/10/17 09:28:25;;;;;;;1.92;0.93;;;9.70;99.90;;;;;;5002304;28;20051;-67
2023/10/17 09:30:57;;;;;;;4.70;1.10;;;9.70;99.90;;;;;;5000017;28;20042;-65
2023/10/17 09:33:31;;;;;;;4.63;0.82;;;9.80;99.90;;;;;;5004970;28;20108;-64
2023/10/17 09:36:04;;;;;;;2.00;0.85;;;9.80;99.90;;;;;;4979024;28;20062;-63
2023/10/17 09:38:33;;;;;;;4.18;0.70;;;9.90;99.90;;;;;;4997686;28;20552;-70
2023/10/17 09:41:01;;;;;;;2.80;1.52;;;9.90;99.90;;;;;;4998956;28;20041;-63
2023/10/17 09:43:53;;;;;;;3.08;1.00;;;9.90;99.90;;;;;;4998432;28;20042;-71
2023/10/17 09:46:26;;;;;;;4.88;1.13;;;10.00;99.90;;;;;;4999313;28;20125;-66
2023/10/17 09:49:02;;;;;;;3.38;1.17;;;10.00;99.90;;;;;;5004162;28;20128;-68
2023/10/17 09:51:35;;;;;;;1.73;1.25;;;9.90;99.90;;;;;;4999554;28;20129;-66
2023/10/17 09:54:04;;;;;;;1.38;0.68;;;9.90;99.90;;;;;;5002469;28;20088;-71
2023/10/17 09:56:38;;;;;;;6.90;1.38;;;9.90;99.90;;;;;;4995689;28;20042;-63
2023/10/17 09:59:14;;;;;;;2.03;0.60;;;9.90;99.90;;;;;;5000500;28;20046;-62
2023/10/17 10:01:45;;;;;;;1.88;0.73;;;9.90;99.90;;;;;;4994101;28;20041;-65
2023/10/17 10:04:13;;;;;;;4.75;1.45;;;10.00;99.90;;;;;;4992345;28;20049;-64
2023/10/17 10:06:40;;;;;;;5.72;1.00;;;10.00;99.90;;;;;;4997172;28;20176;-64
2023/10/17 10:09:17;;;;;;;7.40;1.40;;;10.10;99.90;;;;;;4997332;28;20125;-63
2023/10/17 10:11:53;;;;;;;6.35;1.00;;;10.20;99.90;;;;;;4999061;28;20048;-63
2023/10/17 10:14:36;;;;;;;3.80;1.80;;;10.20;99.90;;;;;;4995458;28;20104;-67
2023/10/17 10:17:04;;;;;;;4.57;1.52;;;10.20;99.90;;;;;;4994373;28;20117;-63
2023/10/17 10:19:40;;;;;;;4.00;1.90;;;10.20;99.90;;;;;;5002892;28;20068;-62
2023/10/17 10:22:12;;;;;;;7.72;1.30;;;10.10;99.90;;;;;;4997692;28;20042;-64
2023/10/17 10:24:41;;;;;;;5.05;0.85;;;10.20;99.90;;;;;;4998941;28;20050;-64
2023/10/17 10:27:08;;;;;;;2.80;0.93;;;10.20;99.90;;;;;;4996168;28;20057;-66
2023/10/17 10:29:36;;;;;;;4.13;0.70;;;10.30;99.90;;;;;;4998539;28;20038;-65
2023/10/17 10:32:06;;;;;;;6.13;0.93;;;10.30;99.90;;;;;;4997623;28;20042;-63
2023/10/17 10:34:37;;;;;;;9.82;1.50;;;10.40;99.90;;;;;;4999655;28;20097;-64
2023/10/17 10:37:06;;;;;;;2.63;1.00;;;10.40;99.90;;;;;;4998696;28;20038;-63
2023/10/17 10:39:33;;;;;;;6.55;1.67;;;10.40;99.90;;;;;;4997356;28;20041;-64
2023/10/17 10:42:01;;;;;;;8.40;0.95;;;10.40;99.90;;;;;;4999192;28;20041;-62
2023/10/17 10:44:28;;;;;;;9.05;1.33;;;10.50;99.90;;;;;;4996188;28;20100;-65
2023/10/17 10:46:56;;;;;;;2.13;0.95;;;10.40;99.90;;;;;;4998555;28;20080;-63
2023/10/17 10:49:30;;;;;;;3.67;1.15;;;10.40;99.90;;;;;;5004778;28;20046;-62
2023/10/17 10:51:58;;;;;;;7.18;1.30;;;10.40;99.90;;;;;;4998128;28;20046;-63
2023/10/17 10:54:45;;;;;;;4.40;0.68;;;10.50;99.90;;;;;;4996545;28;20131;-70
2023/10/17 10:57:12;;;;;;;6.15;0.90;;;10.50;99.90;;;;;;5000141;28;20494;-62
2023/10/17 10:59:49;;;;;;;1.85;0.70;;;10.50;99.90;;;;;;5004360;28;20437;-65
2023/10/17 11:02:16;;;;;;;7.10;1.25;;;10.60;99.90;;;;;;5002586;28;20046;-63
2023/10/17 11:04:43;;;;;;;2.60;1.13;;;10.50;99.90;;;;;;5004604;28;20439;-63
2023/10/17 11:07:23;;;;;;;7.13;1.83;;;10.60;99.90;;;;;;4999895;28;20129;-66
2023/10/17 11:10:11;;;;;;;2.95;0.90;;;10.60;99.90;;;;;;5004178;28;20049;-64
2023/10/17 11:12:38;;;;;;;5.43;1.42;;;10.60;99.90;;;;;;4995351;28;20100;-69
2023/10/17 11:15:16;;;;;;;8.00;1.13;;;10.70;99.90;;;;;;5004464;28;20166;-63
2023/10/17 11:17:43;;;;;;;5.03;1.38;;;10.60;99.90;;;;;;5005836;28;20046;-64
2023/10/17 11:20:14;;;;;;;3.75;0.70;;;10.50;99.90;;;;;;5009014;28;20046;-65
2023/10/17 11:22:42;;;;;;;4.40;1.10;;;10.60;99.90;;;;;;4996267;28;20042;-67
2023/10/17 11:25:15;;;;;;;5.28;1.83;;;10.60;99.90;;;;;;5001566;28;20077;-63
2023/10/17 11:27:53;;;;;;;5.82;1.80;;;10.60;99.90;;;;;;4996760;28;20104;-69
2023/10/17 11:30:20;;;;;;;3.25;1.40;;;10.60;99.90;;;;;;5001634;28;20472;-66
2023/10/17 11:32:49;;;;;;;6.82;1.27;;;10.70;99.90;;;;;;4986989;28;20050;-65
2023/10/17 11:35:19;;;;;;;4.82;1.42;;;10.70;99.90;;;;;;5002931;28;20046;-69
2023/10/17 11:37:47;;;;;;;3.45;0.60;;;10.80;99.90;;;;;;5004277;28;20121;-63
2023/10/17 11:40:44;;;;;;;2.67;1.00;;;10.70;99.90;;;;;;4997977;28;20045;-65
2023/10/17 11:43:19;;;;;;;3.38;0.63;;;10.70;99.90;;;;;;5003918;28;20042;-63
2023/10/17 11:45:46;;;;;;;6.40;2.80;;;10.70;99.90;;;;;;5001249;28;20151;-63
2023/10/17 11:48:27;;;;;;;4.07;1.23;;;10.70;99.90;;;;;;5002099;28;20046;-63
2023/10/17 11:51:14;;;;;;;2.92;0.80;;;10.70;99.90;;;;;;5001153;28;20054;-64
2023/10/17 11:54:03;;;;;;;7.20;1.20;;;10.70;99.90;;;;;;5002012;28;20045;-64
2023/10/17 11:56:40;;;;;;;2.85;0.75;;;10.80;99.90;;;;;;5000789;28;20149;-63
2023/10/17 11:59:10;;;;;;;4.20;0.95;;;10.80;99.90;;;;;;5006145;28;20050;-63
2023/10/17 12:01:37;;;;;;;1.95;1.63;;;10.90;99.90;;;;;;5005691;28;20054;-64
2023/10/17 12:04:08;;;;;;;3.78;1.27;;;10.90;99.90;;;;;;5000726;28;20504;-65
2023/10/17 12:06:36;;;;;;;3.33;1.02;;;10.90;99.90;;;;;;5000957;28;20048;-66
2023/10/17 12:09:18;;;;;;;3.67;0.73;;;10.90;99.90;;;;;;5006018;28;20042;-64
2023/10/17 12:11:46;;;;;;;7.78;2.05;;;10.90;99.90;;;;;;5005830;28;20038;-65
2023/10/17 12:14:20;;;;;;;4.78;2.88;;;11.00;99.90;;;;;;4998711;28;20054;-65
2023/10/17 12:16:48;;;;;;;1.17;0.50;;;10.90;99.90;;;;;;5002743;28;20065;-71
2023/10/17 12:19:17;;;;;;;2.50;0.82;;;11.00;99.90;;;;;;4999417;28;20073;-65
2023/10/17 12:21:47;;;;;;;5.43;1.70;;;11.00;99.90;;;;;;5000471;28;20491;-64
2023/10/17 12:24:24;;;;;;;1.25;0.55;;;10.90;99.90;;;;;;5002516;28;20157;-66
2023/10/17 12:26:51;;;;;;;3.53;1.23;;;10.90;99.90;;;;;;5006241;28;20034;-63
2023/10/17 12:29:19;;;;;;;3.63;0.95;;;10.90;99.90;;;;;;4997691;28;20572;-66
2023/10/17 12:31:47;;;;;;;2.95;1.35;;;10.90;99.90;;;;;;4998167;28;20046;-63
2023/10/17 12:34:15;;;;;;;2.28;1.23;;;10.90;99.90;;;;;;5000906;28;20611;-63
2023/10/17 12:36:46;;;;;;;4.85;0.93;;;10.80;99.90;;;;;;5002258;28;20046;-63
2023/10/17 12:39:19;;;;;;;3.88;0.98;;;10.90;99.90;;;;;;4997799;28;20448;-64
2023/10/17 12:41:48;;;;;;;3.28;1.25;;;10.90;99.90;;;;;;5000939;28;20113;-67
2023/10/17 12:44:15;;;;;;;2.65;1.00;;;10.90;99.90;;;;;;4997431;28;20104;-65
2023/10/17 12:46:43;;;;;;;2.92;1.17;;;11.00;99.90;;;;;;5003004;28;20451;-65
2023/10/17 12:49:12;;;;;;;6.25;1.40;;;10.90;99.90;;;;;;5004501;28;20231;-64
2023/10/17 12:51:39;;;;;;;4.07;3.03;;;10.90;99.90;;;;;;4999837;28;20124;-70
2023/10/17 12:54:08;;;;;;;4.32;1.20;;;10.90;99.90;;;;;;5002405;28;20065;-64
2023/10/17 12:56:39;;;;;;;9.75;1.70;;;10.90;99.90;;;;;;4999601;28;20097;-66
2023/10/17 12:59:12;;;;;;;1.75;1.10;;;11.00;99.90;;;;;;4998349;28;20038;-69
2023/10/17 13:01:40;;;;;;;7.53;1.00;;;11.00;99.90;;;;;;5001067;28;20045;-64
2023/10/17 13:04:09;;;;;;;8.57;1.00;;;11.00;99.90;;;;;;4985571;28;20058;-68
2023/10/17 13:06:38;;;;;;;3.65;1.27;;;11.10;99.90;;;;;;5000553;28;20054;-66
2023/10/17 13:09:05;;;;;;;2.65;0.88;;;11.10;99.90;;;;;;5001844;28;20514;-63
2023/10/17 13:11:32;;;;;;;2.70;0.52;;;11.20;99.90;;;;;;5000505;28;20042;-65
2023/10/17 13:13:59;;;;;;;3.05;0.88;;;11.20;99.90;;;;;;5003335;28;20041;-63
2023/10/17 13:16:26;;;;;;;4.43;1.55;;;11.20;99.90;;;;;;5001165;28;20060;-63
2023/10/17 13:18:56;;;;;;;3.65;1.55;;;11.20;99.90;;;;;;5003608;28;20046;-64
2023/10/17 13:21:25;;;;;;;3.10;1.13;;;11.20;99.90;;;;;;4998437;28;20038;-65
2023/10/17 13:23:52;;;;;;;1.67;0.73;;;11.20;99.90;;;;;;5003186;28;20650;-64
2023/10/17 13:26:19;;;;;;;1.50;0.88;;;11.20;99.90;;;;;;5003274;28;20097;-64
2023/10/17 13:28:50;;;;;;;9.93;2.28;;;11.20;99.90;;;;;;5003506;28;20063;-63
2023/10/17 13:31:18;;;;;;;9.23;1.40;;;11.20;99.90;;;;;;5001126;28;20038;-64
2023/10/17 13:33:45;;;;;;;2.28;0.95;;;11.20;99.90;;;;;;5000922;28;20053;-69
2023/10/17 13:36:20;;;;;;;5.45;1.40;;;11.20;99.90;;;;;;4996034;28;20050;-65
2023/10/17 13:38:48;;;;;;;5.38;1.20;;;11.20;99.90;;;;;;4980522;28;20045;-64
2023/10/17 13:41:15;;;;;;;4.18;1.23;;;11.20;99.90;;;;;;5002176;28;20103;-65
2023/10/17 13:43:44;;;;;;;3.83;1.10;;;11.10;99.90;;;;;;4998479;28;20061;-71
2023/10/17 13:46:12;;;;;;;4.20;1.85;;;11.10;99.90;;;;;;5001619;28;20117;-63
2023/10/17 13:48:48;;;;;;;7.00;1.23;;;11.10;99.90;;;;;;5002198;28;20050;-63
2023/10/17 13:51:16;;;;;;;8.13;1.65;;;11.00;99.90;;;;;;4992774;28;20445;-65
2023/10/17 13:53:48;;;;;;;5.50;1.17;;;11.00;99.90;;;;;;5003188;28;20042;-66
2023/10/17 13:56:18;;;;;;;5.40;1.67;;;11.00;99.90;;;;;;5000260;28;20161;-64
2023/10/17 13:58:46;;;;;;;;;;;11.00;99.90;;;;;;5001493;28;20052;-65
2023/10/17 14:01:32;;;;;;;13.18;2.30;;;10.90;99.90;;;;;;4997715;28;19922;-64
2023/10/17 14:04:01;;;;;;;6.82;2.25;;;10.90;99.90;;;;;;5002525;28;20054;-64
2023/10/17 14:06:34;;;;;;;9.80;1.58;;;10.90;99.90;;;;;;4997611;28;20069;-63
2023/10/17 14:09:03;;;;;;;5.03;2.08;;;10.90;99.90;;;;;;5001256;28;20046;-67
2023/10/17 14:11:30;;;;;;;10.98;2.42;;;11.00;99.90;;;;;;5001033;28;20096;-62
2023/10/17 14:13:58;;;;;;;8.07;2.00;;;11.00;99.90;;;;;;5000840;28;20034;-67
2023/10/17 14:16:25;;;;;;;7.20;1.73;;;11.00;99.90;;;;;;4998602;28;20038;-64
2023/10/17 14:19:06;;;;;;;7.03;1.88;;;11.10;99.90;;;;;;4997498;28;20430;-64
2023/10/17 14:21:39;;;;;;;8.60;1.90;;;11.10;99.90;;;;;;5001162;28;20046;-63
2023/10/17 14:24:07;;;;;;;7.38;2.25;;;11.10;99.90;;;;;;4997676;28;20531;-67
2023/10/17 14:26:34;;;;;;;13.65;3.10;;;11.10;99.90;;;;;;4999716;28;20593;-64
2023/10/17 14:29:02;;;;;;;3.35;1.88;;;11.10;99.90;;;;;;4997622;28;20070;-63
2023/10/17 14:31:30;;;;;;;6.70;1.17;;;11.10;99.90;;;;;;4996672;28;20042;-63
2023/10/17 14:33:59;;;;;;;8.80;1.13;;;11.10;99.90;;;;;;4996119;28;20042;-65
2023/10/17 14:36:29;;;;;;;9.98;1.70;;;11.10;99.90;;;;;;5002274;28;20504;-65
2023/10/17 14:38:58;;;;;;;;;;;11.00;99.90;;;;;;5001625;28;20050;-69
2023/10/17 14:41:25;;;;;;;8.38;1.45;;;11.00;99.90;;;;;;5000809;28;19932;-65
2023/10/17 14:43:54;;;;;;;11.20;2.10;;;11.00;99.90;;;;;;5002272;28;20046;-63
2023/10/17 14:46:21;;;;;;;5.70;2.17;;;10.90;99.90;;;;;;5001342;28;20492;-69
2023/10/17 14:48:48;;;;;;;5.95;1.52;;;10.90;99.90;;;;;;5004091;28;20046;-63
2023/10/17 14:51:15;;;;;;;5.03;1.10;;;10.90;99.90;;;;;;5002663;28;20050;-68
2023/10/17 14:53:43;;;;;;;6.15;1.60;;;10.80;99.90;;;;;;5007789;28;20483;-68
2023/10/17 14:56:21;;;;;;;3.13;1.83;;;10.80;99.90;;;;;;5004151;28;20397;-64
2023/10/17 14:58:53;;;;;;;8.73;4.30;;;10.80;99.90;;;;;;5000527;28;20132;-65
2023/10/17 15:01:20;;;;;;;5.38;1.35;;;10.70;99.90;;;;;;4997877;28;20088;-69
2023/10/17 15:03:47;;;;;;;5.65;1.60;;;10.70;99.90;;;;;;4993125;28;20100;-64
2023/10/17 15:06:15;;;;;;;4.68;1.00;;;10.60;99.90;;;;;;4999062;28;20051;-70
2023/10/17 15:08:43;;;;;;;9.77;2.45;;;10.60;99.90;;;;;;4999534;28;20455;-64
2023/10/17 15:11:10;;;;;;;4.18;1.65;;;10.60;99.90;;;;;;5000114;28;20046;-66
2023/10/17 15:13:38;;;;;;;4.68;1.35;;;10.50;99.90;;;;;;4998414;28;20045;-67
2023/10/17 15:16:21;;;;;;;3.83;1.10;;;10.50;99.90;;;;;;4999967;28;20050;-63
2023/10/17 15:18:51;;;;;;;5.82;1.40;;;10.50;99.90;;;;;;5002492;28;20576;-67
2023/10/17 15:21:21;;;;;;;;;;;10.50;99.90;;;;;;5004438;28;20045;-67
2023/10/17 15:23:48;;;;;;;8.30;1.98;;;10.50;99.90;;;;;;5000557;28;19922;-64